createdAt,value
2018-10-18T15:10:41.813Z,80.89
2018-10-18T15:13:25.252Z,82.05
2018-10-18T15:16:13.464Z,83.16
2018-10-18T15:18:58.269Z,84.21
2018-10-18T15:21:42.183Z,85.72
2018-10-18T15:24:29.603Z,87.24
2018-10-18T15:27:14.584Z,88.70
2018-10-18T15:30:02.179Z,89.46
2018-10-18T15:32:46.269Z,89.39
2018-10-18T15:35:30.462Z,90.01
2018-10-18T15:38:14.370Z,90.38
2018-10-18T15:40:57.929Z,90.45
2018-10-18T15:43:42.982Z,90.53
2018-10-18T15:46:27.128Z,91.52
2018-10-18T15:49:13.983Z,91.26
2018-10-18T15:52:00.899Z,90.88
2018-10-18T15:54:46.499Z,90.84
2018-10-18T15:57:29.579Z,90.74
2018-10-18T16:00:13.292Z,91.08
2018-10-18T16:02:56.099Z,90.44
2018-10-18T16:05:39.110Z,90.03
2018-10-18T16:08:22.753Z,90.11
2018-10-18T16:11:05.830Z,90.01
2018-10-18T16:13:48.825Z,89.86
2018-10-18T16:16:32.396Z,90.37
2018-10-18T16:19:16.921Z,90.39
2018-10-18T16:22:00.637Z,90.98
2018-10-18T16:24:44.615Z,91.08
2018-10-18T16:27:27.985Z,91.43
2018-10-18T16:30:11.934Z,91.41
2018-10-18T16:32:54.917Z,91.19
2018-10-18T16:35:38.148Z,91.53
2018-10-18T16:38:22.933Z,91.63
2018-10-18T16:41:06.562Z,91.07
2018-10-18T16:43:49.538Z,90.95
2018-10-18T16:46:32.653Z,91.17
2018-10-18T16:49:15.250Z,90.80
2018-10-18T16:51:58.995Z,90.18
2018-10-18T16:54:42.669Z,90.36
2018-10-18T16:57:25.759Z,90.33
2018-10-18T17:00:10.332Z,90.29
2018-10-18T17:02:52.970Z,90.03
2018-10-18T17:05:35.969Z,90.12
2018-10-18T17:08:19.744Z,90.43
2018-10-18T17:11:02.640Z,89.83
2018-10-18T17:13:45.623Z,90.03
2018-10-18T17:16:28.631Z,90.39
2018-10-18T17:19:11.974Z,90.34
2018-10-18T17:21:55.573Z,90.10
2018-10-18T17:24:38.889Z,90.14
2018-10-18T17:27:21.848Z,90.00
2018-10-18T17:30:04.687Z,90.54
2018-10-18T17:32:48.090Z,90.69
2018-10-18T17:35:30.994Z,90.63
2018-10-18T17:38:14.196Z,90.85
2018-10-18T17:40:57.638Z,91.52
2018-10-18T17:43:41.114Z,91.92
2018-10-18T17:46:24.048Z,92.09
2018-10-18T17:49:07.252Z,93.36
2018-10-18T17:51:50.146Z,93.20
2018-10-18T17:54:32.889Z,93.59
2018-10-18T17:57:16.016Z,93.48
2018-10-18T17:59:58.947Z,93.77
2018-10-18T18:02:42.405Z,93.75
2018-10-18T18:05:24.817Z,93.95
2018-10-18T18:08:07.882Z,93.75
2018-10-18T18:10:51.255Z,93.44
2018-10-18T18:13:34.556Z,92.89
2018-10-18T18:16:17.836Z,92.67
2018-10-18T18:19:00.746Z,92.42
2018-10-18T18:21:43.277Z,92.91
2018-10-18T18:24:26.578Z,91.70
2018-10-18T18:27:09.219Z,91.34
2018-10-18T18:29:52.333Z,90.83
2018-10-18T18:32:35.411Z,90.68
2018-10-18T18:35:18.537Z,90.54
2018-10-18T18:38:01.842Z,90.04
2018-10-18T18:40:44.276Z,90.15
2018-10-18T18:43:28.242Z,90.31
2018-10-18T18:46:11.126Z,89.96
2018-10-18T18:48:54.594Z,88.65
2018-10-18T18:51:37.621Z,88.77
2018-10-18T18:54:20.438Z,88.16
2018-10-18T18:57:04.052Z,88.77
2018-10-18T18:59:47.165Z,88.14
2018-10-18T19:02:30.807Z,87.96
2018-10-18T19:05:14.184Z,87.67
2018-10-18T19:07:56.860Z,86.12
2018-10-18T19:10:40.640Z,86.07
2018-10-18T19:13:23.359Z,86.79
2018-10-18T19:16:05.902Z,85.94
2018-10-18T19:18:49.348Z,85.55
2018-10-18T19:21:32.672Z,85.50
2018-10-18T19:24:16.108Z,85.53
2018-10-18T19:26:58.873Z,86.36
2018-10-18T19:29:41.744Z,85.13
2018-10-18T19:32:24.788Z,85.09
2018-10-18T19:35:07.306Z,84.67
2018-10-18T19:37:49.989Z,85.24
2018-10-18T19:40:33.939Z,84.81
2018-10-18T19:43:17.965Z,84.99
2018-10-18T19:46:00.930Z,85.30
2018-10-18T19:48:44.233Z,84.54
2018-10-18T19:51:26.626Z,84.19
2018-10-18T19:54:11.923Z,85.05
2018-10-18T19:56:54.766Z,84.91
2018-10-18T19:59:38.162Z,84.59
2018-10-18T20:02:21.179Z,84.77
2018-10-18T20:05:03.949Z,85.06
2018-10-18T20:07:47.024Z,84.70
2018-10-18T20:10:30.682Z,84.88
2018-10-18T20:13:14.286Z,85.26
2018-10-18T20:15:57.265Z,85.13
2018-10-18T20:18:39.893Z,85.62
2018-10-18T20:21:23.154Z,85.31
2018-10-18T20:24:06.179Z,85.85
2018-10-18T20:26:49.101Z,86.13
2018-10-18T20:29:31.945Z,86.14
2018-10-18T20:32:15.010Z,86.51
2018-10-18T20:34:57.633Z,86.63
2018-10-18T20:37:41.205Z,86.57
2018-10-18T20:40:24.458Z,87.30
2018-10-18T20:43:07.873Z,87.60
2018-10-18T20:45:51.284Z,87.75
2018-10-18T20:48:34.476Z,88.14
2018-10-18T20:51:16.952Z,88.96
2018-10-18T20:54:00.248Z,88.80
2018-10-18T20:56:43.245Z,88.52
2018-10-18T20:59:26.251Z,89.31
2018-10-18T21:02:09.153Z,89.31
2018-10-18T21:04:52.428Z,89.06
2018-10-18T21:07:35.617Z,88.91
2018-10-18T21:10:19.163Z,88.71
2018-10-18T21:13:02.232Z,89.02
2018-10-18T21:15:45.321Z,88.47
2018-10-18T21:18:29.889Z,89.45
2018-10-18T21:21:12.561Z,89.03
2018-10-18T21:23:55.805Z,89.71
2018-10-18T21:26:39.438Z,89.63
2018-10-18T21:29:22.393Z,89.78
2018-10-18T21:32:05.393Z,89.44
2018-10-18T21:34:49.394Z,89.97
2018-10-18T21:37:32.095Z,90.52
2018-10-18T21:40:14.865Z,90.95
2018-10-18T21:42:57.876Z,90.44
2018-10-18T21:45:40.834Z,90.90
2018-10-18T21:48:23.574Z,91.50
2018-10-18T21:51:07.104Z,91.49
2018-10-18T21:53:49.668Z,90.92
2018-10-18T21:56:32.888Z,91.11
2018-10-18T21:59:16.398Z,91.44
2018-10-18T22:01:59.236Z,91.91
2018-10-18T22:04:42.573Z,91.70
2018-10-18T22:07:24.981Z,91.99
2018-10-18T22:10:08.304Z,92.08
2018-10-18T22:12:51.409Z,92.93
2018-10-18T22:15:34.501Z,92.79
2018-10-18T22:18:17.781Z,92.77
2018-10-18T22:21:00.647Z,92.90
2018-10-18T22:23:43.719Z,92.95
2018-10-18T22:26:26.862Z,93.18
2018-10-18T22:29:10.494Z,93.49
2018-10-18T22:31:53.433Z,93.46
2018-10-18T22:34:37.232Z,93.63
2018-10-18T22:37:20.182Z,93.67
2018-10-18T22:40:03.250Z,93.91
2018-10-18T22:42:47.075Z,93.77
2018-10-18T22:45:30.052Z,94.23
2018-10-18T22:48:12.672Z,94.09
2018-10-18T22:50:56.522Z,93.78
2018-10-18T22:53:39.520Z,94.22
2018-10-18T22:56:22.433Z,94.11
2018-10-18T22:59:06.077Z,94.24
2018-10-18T23:01:49.393Z,94.19
2018-10-18T23:04:32.225Z,93.94
2018-10-18T23:07:15.689Z,94.05
2018-10-18T23:09:59.015Z,94.21
2018-10-18T23:12:42.121Z,94.26
2018-10-18T23:15:25.836Z,94.61
2018-10-18T23:18:09.669Z,94.41
2018-10-18T23:20:52.113Z,94.15
2018-10-18T23:23:35.358Z,94.66
2018-10-18T23:26:18.557Z,94.72
2018-10-18T23:29:01.597Z,94.26
2018-10-18T23:31:44.824Z,94.99
2018-10-18T23:34:27.913Z,94.88
2018-10-18T23:40:56.201Z,94.74
2018-10-18T23:43:39.244Z,94.74
2018-10-18T23:46:22.082Z,94.56
2018-10-18T23:49:05.108Z,95.00
2018-10-18T23:51:48.930Z,94.64
2018-10-18T23:54:32.243Z,94.57
2018-10-18T23:57:15.773Z,95.23
2018-10-18T23:59:58.613Z,95.35
